sensor_id;sensor_type;location;lat;lon;timestamp;P1;durP1;ratioP1;P2;durP2;ratioP2
20629;SDS011;17386;43.846;25.950;2022-07-30T00:01:11;12.93;;;5.65;;
20629;SDS011;17386;43.846;25.950;2022-07-30T00:03:36;11.57;;;5.57;;
20629;SDS011;17386;43.846;25.950;2022-07-30T00:06:02;8.77;;;5.38;;
20629;SDS011;17386;43.846;25.950;2022-07-30T00:08:28;8.30;;;4.85;;
20629;SDS011;17386;43.846;25.950;2022-07-30T00:10:53;13.55;;;5.15;;
20629;SDS011;17386;43.846;25.950;2022-07-30T00:13:18;9.80;;;4.60;;
20629;SDS011;17386;43.846;25.950;2022-07-30T00:15:44;8.32;;;4.43;;
20629;SDS011;17386;43.846;25.950;2022-07-30T00:18:09;10.15;;;4.88;;
20629;SDS011;17386;43.846;25.950;2022-07-30T00:20:35;15.13;;;4.57;;
20629;SDS011;17386;43.846;25.950;2022-07-30T00:23:03;13.25;;;4.43;;
20629;SDS011;17386;43.846;25.950;2022-07-30T00:25:29;15.57;;;5.10;;
20629;SDS011;17386;43.846;25.950;2022-07-30T00:27:54;12.40;;;4.90;;
20629;SDS011;17386;43.846;25.950;2022-07-30T00:30:20;12.18;;;4.53;;
20629;SDS011;17386;43.846;25.950;2022-07-30T00:32:45;12.80;;;4.70;;
20629;SDS011;17386;43.846;25.950;2022-07-30T00:35:11;11.38;;;4.60;;
20629;SDS011;17386;43.846;25.950;2022-07-30T00:37:37;11.75;;;5.35;;
20629;SDS011;17386;43.846;25.950;2022-07-30T00:40:02;8.32;;;4.35;;
20629;SDS011;17386;43.846;25.950;2022-07-30T00:42:39;9.25;;;4.13;;
20629;SDS011;17386;43.846;25.950;2022-07-30T00:45:06;9.80;;;4.20;;
20629;SDS011;17386;43.846;25.950;2022-07-30T00:47:33;9.75;;;4.43;;
20629;SDS011;17386;43.846;25.950;2022-07-30T00:49:59;8.38;;;4.32;;
20629;SDS011;17386;43.846;25.950;2022-07-30T00:52:28;5.90;;;4.20;;
20629;SDS011;17386;43.846;25.950;2022-07-30T00:54:57;9.48;;;4.68;;
20629;SDS011;17386;43.846;25.950;2022-07-30T00:57:23;8.45;;;5.55;;
20629;SDS011;17386;43.846;25.950;2022-07-30T00:59:49;7.72;;;4.47;;
20629;SDS011;17386;43.846;25.950;2022-07-30T01:02:15;7.90;;;4.72;;
20629;SDS011;17386;43.846;25.950;2022-07-30T01:04:40;10.05;;;5.18;;
20629;SDS011;17386;43.846;25.950;2022-07-30T01:07:05;8.45;;;4.75;;
20629;SDS011;17386;43.846;25.950;2022-07-30T01:09:31;7.13;;;5.63;;
20629;SDS011;17386;43.846;25.950;2022-07-30T01:11:56;6.45;;;4.40;;
20629;SDS011;17386;43.846;25.950;2022-07-30T01:14:22;7.53;;;4.63;;
20629;SDS011;17386;43.846;25.950;2022-07-30T01:16:48;6.55;;;4.55;;
20629;SDS011;17386;43.846;25.950;2022-07-30T01:19:18;8.93;;;4.38;;
20629;SDS011;17386;43.846;25.950;2022-07-30T01:22:08;8.40;;;4.60;;
20629;SDS011;17386;43.846;25.950;2022-07-30T01:24:42;8.73;;;4.40;;
20629;SDS011;17386;43.846;25.950;2022-07-30T01:27:13;10.82;;;4.60;;
20629;SDS011;17386;43.846;25.950;2022-07-30T01:29:40;11.05;;;5.28;;
20629;SDS011;17386;43.846;25.950;2022-07-30T01:32:07;11.13;;;5.38;;
20629;SDS011;17386;43.846;25.950;2022-07-30T01:34:34;11.52;;;5.32;;
20629;SDS011;17386;43.846;25.950;2022-07-30T01:37:03;10.32;;;5.43;;
20629;SDS011;17386;43.846;25.950;2022-07-30T01:39:29;10.55;;;5.03;;
20629;SDS011;17386;43.846;25.950;2022-07-30T01:41:56;9.65;;;6.18;;
20629;SDS011;17386;43.846;25.950;2022-07-30T01:44:23;8.73;;;5.40;;
20629;SDS011;17386;43.846;25.950;2022-07-30T01:46:52;9.98;;;6.05;;
20629;SDS011;17386;43.846;25.950;2022-07-30T01:49:20;8.75;;;5.43;;
20629;SDS011;17386;43.846;25.950;2022-07-30T01:51:47;10.82;;;5.55;;
20629;SDS011;17386;43.846;25.950;2022-07-30T01:54:14;8.38;;;5.55;;
20629;SDS011;17386;43.846;25.950;2022-07-30T01:56:43;9.20;;;5.50;;
20629;SDS011;17386;43.846;25.950;2022-07-30T01:59:12;10.18;;;6.30;;
20629;SDS011;17386;43.846;25.950;2022-07-30T02:01:40;11.13;;;5.97;;
20629;SDS011;17386;43.846;25.950;2022-07-30T02:04:06;10.48;;;5.80;;
20629;SDS011;17386;43.846;25.950;2022-07-30T02:06:33;11.75;;;5.97;;
20629;SDS011;17386;43.846;25.950;2022-07-30T02:09:06;9.20;;;5.95;;
20629;SDS011;17386;43.846;25.950;2022-07-30T02:11:38;14.30;;;6.20;;
20629;SDS011;17386;43.846;25.950;2022-07-30T02:14:25;9.85;;;5.57;;
20629;SDS011;17386;43.846;25.950;2022-07-30T02:17:13;10.68;;;5.78;;
20629;SDS011;17386;43.846;25.950;2022-07-30T02:19:43;14.50;;;6.88;;
20629;SDS011;17386;43.846;25.950;2022-07-30T02:22:10;14.30;;;6.05;;
20629;SDS011;17386;43.846;25.950;2022-07-30T02:24:40;11.45;;;6.40;;
20629;SDS011;17386;43.846;25.950;2022-07-30T02:27:14;11.80;;;6.30;;
20629;SDS011;17386;43.846;25.950;2022-07-30T02:29:43;11.20;;;5.97;;
20629;SDS011;17386;43.846;25.950;2022-07-30T02:32:11;11.27;;;6.68;;
20629;SDS011;17386;43.846;25.950;2022-07-30T02:34:39;11.88;;;6.20;;
20629;SDS011;17386;43.846;25.950;2022-07-30T02:37:07;8.82;;;5.93;;
20629;SDS011;17386;43.846;25.950;2022-07-30T02:39:35;17.05;;;7.18;;
20629;SDS011;17386;43.846;25.950;2022-07-30T02:44:28;9.85;;;6.30;;
20629;SDS011;17386;43.846;25.950;2022-07-30T02:46:55;11.60;;;6.55;;
20629;SDS011;17386;43.846;25.950;2022-07-30T02:49:23;11.48;;;6.82;;
20629;SDS011;17386;43.846;25.950;2022-07-30T02:51:50;10.55;;;6.07;;
20629;SDS011;17386;43.846;25.950;2022-07-30T02:54:17;12.13;;;7.85;;
20629;SDS011;17386;43.846;25.950;2022-07-30T02:56:47;9.15;;;5.78;;
20629;SDS011;17386;43.846;25.950;2022-07-30T02:59:16;11.73;;;6.95;;
20629;SDS011;17386;43.846;25.950;2022-07-30T03:01:43;11.93;;;6.95;;
20629;SDS011;17386;43.846;25.950;2022-07-30T03:04:12;12.15;;;6.65;;
20629;SDS011;17386;43.846;25.950;2022-07-30T03:06:38;14.50;;;7.25;;
20629;SDS011;17386;43.846;25.950;2022-07-30T03:09:04;11.93;;;6.72;;
20629;SDS011;17386;43.846;25.950;2022-07-30T03:11:33;11.93;;;6.70;;
20629;SDS011;17386;43.846;25.950;2022-07-30T03:14:00;13.48;;;6.75;;
20629;SDS011;17386;43.846;25.950;2022-07-30T03:16:26;13.10;;;7.18;;
20629;SDS011;17386;43.846;25.950;2022-07-30T03:18:54;8.63;;;6.47;;
20629;SDS011;17386;43.846;25.950;2022-07-30T03:21:22;14.98;;;7.00;;
20629;SDS011;17386;43.846;25.950;2022-07-30T03:23:51;9.82;;;5.95;;
20629;SDS011;17386;43.846;25.950;2022-07-30T03:26:18;13.30;;;6.78;;
20629;SDS011;17386;43.846;25.950;2022-07-30T03:28:46;11.55;;;6.45;;
20629;SDS011;17386;43.846;25.950;2022-07-30T03:31:13;12.27;;;6.55;;
20629;SDS011;17386;43.846;25.950;2022-07-30T03:33:40;14.98;;;6.78;;
20629;SDS011;17386;43.846;25.950;2022-07-30T03:36:06;10.02;;;6.70;;
20629;SDS011;17386;43.846;25.950;2022-07-30T03:38:37;12.25;;;7.13;;
20629;SDS011;17386;43.846;25.950;2022-07-30T03:41:05;17.20;;;7.97;;
20629;SDS011;17386;43.846;25.950;2022-07-30T03:43:31;11.80;;;7.55;;
20629;SDS011;17386;43.846;25.950;2022-07-30T03:45:58;10.88;;;7.28;;
20629;SDS011;17386;43.846;25.950;2022-07-30T03:48:25;17.52;;;7.28;;
20629;SDS011;17386;43.846;25.950;2022-07-30T03:50:51;11.82;;;7.40;;
20629;SDS011;17386;43.846;25.950;2022-07-30T03:53:18;10.38;;;7.05;;
20629;SDS011;17386;43.846;25.950;2022-07-30T03:55:47;10.15;;;7.03;;
20629;SDS011;17386;43.846;25.950;2022-07-30T03:58:13;15.48;;;7.55;;
20629;SDS011;17386;43.846;25.950;2022-07-30T04:00:39;14.77;;;8.48;;
20629;SDS011;17386;43.846;25.950;2022-07-30T04:03:05;11.82;;;7.32;;
20629;SDS011;17386;43.846;25.950;2022-07-30T04:05:32;12.65;;;6.95;;
20629;SDS011;17386;43.846;25.950;2022-07-30T04:07:57;10.25;;;6.88;;
20629;SDS011;17386;43.846;25.950;2022-07-30T04:10:23;13.82;;;8.23;;
20629;SDS011;17386;43.846;25.950;2022-07-30T04:12:48;14.35;;;7.88;;
20629;SDS011;17386;43.846;25.950;2022-07-30T04:15:14;9.98;;;7.18;;
20629;SDS011;17386;43.846;25.950;2022-07-30T04:20:19;12.68;;;8.27;;
20629;SDS011;17386;43.846;25.950;2022-07-30T04:22:48;16.02;;;8.25;;
20629;SDS011;17386;43.846;25.950;2022-07-30T04:27:42;17.40;;;8.40;;
20629;SDS011;17386;43.846;25.950;2022-07-30T04:30:08;14.55;;;9.35;;
20629;SDS011;17386;43.846;25.950;2022-07-30T04:32:34;13.50;;;8.13;;
20629;SDS011;17386;43.846;25.950;2022-07-30T04:35:01;13.50;;;8.70;;
20629;SDS011;17386;43.846;25.950;2022-07-30T04:37:28;15.55;;;7.93;;
20629;SDS011;17386;43.846;25.950;2022-07-30T04:39:53;16.08;;;9.13;;
20629;SDS011;17386;43.846;25.950;2022-07-30T04:42:22;16.45;;;9.20;;
20629;SDS011;17386;43.846;25.950;2022-07-30T04:47:14;14.02;;;8.93;;
20629;SDS011;17386;43.846;25.950;2022-07-30T04:49:40;17.42;;;8.90;;
20629;SDS011;17386;43.846;25.950;2022-07-30T04:52:07;14.38;;;9.10;;
20629;SDS011;17386;43.846;25.950;2022-07-30T04:54:39;15.00;;;8.88;;
20629;SDS011;17386;43.846;25.950;2022-07-30T04:57:12;17.42;;;9.80;;
20629;SDS011;17386;43.846;25.950;2022-07-30T04:59:39;16.33;;;9.30;;
20629;SDS011;17386;43.846;25.950;2022-07-30T05:02:05;18.33;;;11.35;;
20629;SDS011;17386;43.846;25.950;2022-07-30T05:04:33;18.52;;;10.48;;
20629;SDS011;17386;43.846;25.950;2022-07-30T05:07:00;18.58;;;9.82;;
20629;SDS011;17386;43.846;25.950;2022-07-30T05:11:53;19.10;;;10.63;;
20629;SDS011;17386;43.846;25.950;2022-07-30T05:14:20;16.00;;;10.48;;
20629;SDS011;17386;43.846;25.950;2022-07-30T05:16:47;15.40;;;10.10;;
20629;SDS011;17386;43.846;25.950;2022-07-30T05:19:12;19.83;;;10.45;;
20629;SDS011;17386;43.846;25.950;2022-07-30T05:21:38;16.30;;;10.07;;
20629;SDS011;17386;43.846;25.950;2022-07-30T05:24:04;17.95;;;10.25;;
20629;SDS011;17386;43.846;25.950;2022-07-30T05:26:30;17.00;;;10.55;;
20629;SDS011;17386;43.846;25.950;2022-07-30T05:28:55;16.42;;;10.32;;
20629;SDS011;17386;43.846;25.950;2022-07-30T05:31:20;18.73;;;9.85;;
20629;SDS011;17386;43.846;25.950;2022-07-30T05:33:46;19.77;;;10.57;;
20629;SDS011;17386;43.846;25.950;2022-07-30T05:36:11;20.75;;;12.07;;
20629;SDS011;17386;43.846;25.950;2022-07-30T05:38:37;15.63;;;10.32;;
20629;SDS011;17386;43.846;25.950;2022-07-30T05:41:02;14.88;;;9.90;;
20629;SDS011;17386;43.846;25.950;2022-07-30T05:43:28;14.63;;;10.40;;
20629;SDS011;17386;43.846;25.950;2022-07-30T05:45:53;16.77;;;10.60;;
20629;SDS011;17386;43.846;25.950;2022-07-30T05:48:19;14.93;;;10.40;;
20629;SDS011;17386;43.846;25.950;2022-07-30T05:50:44;16.17;;;10.98;;
20629;SDS011;17386;43.846;25.950;2022-07-30T05:53:10;15.45;;;10.05;;
20629;SDS011;17386;43.846;25.950;2022-07-30T05:55:35;16.52;;;10.43;;
20629;SDS011;17386;43.846;25.950;2022-07-30T05:58:00;15.48;;;11.02;;
20629;SDS011;17386;43.846;25.950;2022-07-30T06:00:26;14.85;;;11.13;;
20629;SDS011;17386;43.846;25.950;2022-07-30T06:02:51;17.70;;;10.80;;
20629;SDS011;17386;43.846;25.950;2022-07-30T06:05:17;16.33;;;10.23;;
20629;SDS011;17386;43.846;25.950;2022-07-30T06:07:42;15.02;;;10.55;;
20629;SDS011;17386;43.846;25.950;2022-07-30T06:10:08;16.08;;;10.15;;
20629;SDS011;17386;43.846;25.950;2022-07-30T06:12:33;17.77;;;10.95;;
20629;SDS011;17386;43.846;25.950;2022-07-30T06:14:59;17.33;;;11.20;;
20629;SDS011;17386;43.846;25.950;2022-07-30T06:17:24;12.20;;;9.07;;
20629;SDS011;17386;43.846;25.950;2022-07-30T06:19:50;15.35;;;10.90;;
20629;SDS011;17386;43.846;25.950;2022-07-30T06:22:17;16.38;;;10.65;;
20629;SDS011;17386;43.846;25.950;2022-07-30T06:24:42;14.95;;;10.35;;
20629;SDS011;17386;43.846;25.950;2022-07-30T06:27:08;14.95;;;9.38;;
20629;SDS011;17386;43.846;25.950;2022-07-30T07:06:38;13.35;;;8.90;;
20629;SDS011;17386;43.846;25.950;2022-07-30T07:09:04;13.52;;;9.50;;
20629;SDS011;17386;43.846;25.950;2022-07-30T07:11:30;13.00;;;8.45;;
20629;SDS011;17386;43.846;25.950;2022-07-30T07:13:55;22.65;;;9.52;;
20629;SDS011;17386;43.846;25.950;2022-07-30T07:16:22;15.98;;;9.25;;
20629;SDS011;17386;43.846;25.950;2022-07-30T07:18:52;11.98;;;8.25;;
20629;SDS011;17386;43.846;25.950;2022-07-30T07:21:18;14.38;;;8.00;;
20629;SDS011;17386;43.846;25.950;2022-07-30T07:23:44;13.30;;;8.52;;
20629;SDS011;17386;43.846;25.950;2022-07-30T07:26:12;13.52;;;9.68;;
20629;SDS011;17386;43.846;25.950;2022-07-30T07:28:38;13.60;;;8.73;;
20629;SDS011;17386;43.846;25.950;2022-07-30T07:31:04;14.52;;;9.75;;
20629;SDS011;17386;43.846;25.950;2022-07-30T07:33:30;16.63;;;8.52;;
20629;SDS011;17386;43.846;25.950;2022-07-30T07:35:55;19.00;;;8.85;;
20629;SDS011;17386;43.846;25.950;2022-07-30T07:38:20;10.30;;;8.15;;
20629;SDS011;17386;43.846;25.950;2022-07-30T07:40:46;11.27;;;8.40;;
20629;SDS011;17386;43.846;25.950;2022-07-30T07:43:11;13.80;;;10.18;;
20629;SDS011;17386;43.846;25.950;2022-07-30T07:45:38;13.35;;;9.65;;
20629;SDS011;17386;43.846;25.950;2022-07-30T07:48:04;17.45;;;10.63;;
20629;SDS011;17386;43.846;25.950;2022-07-30T07:50:30;10.35;;;8.43;;
20629;SDS011;17386;43.846;25.950;2022-07-30T07:52:55;12.43;;;7.72;;
20629;SDS011;17386;43.846;25.950;2022-07-30T07:55:21;15.80;;;8.35;;
20629;SDS011;17386;43.846;25.950;2022-07-30T07:57:47;9.93;;;7.72;;
20629;SDS011;17386;43.846;25.950;2022-07-30T08:00:13;10.32;;;7.15;;
20629;SDS011;17386;43.846;25.950;2022-07-30T08:02:39;11.13;;;8.10;;
20629;SDS011;17386;43.846;25.950;2022-07-30T08:05:05;14.23;;;10.55;;
20629;SDS011;17386;43.846;25.950;2022-07-30T08:07:31;12.25;;;7.97;;
20629;SDS011;17386;43.846;25.950;2022-07-30T08:09:57;11.07;;;7.85;;
20629;SDS011;17386;43.846;25.950;2022-07-30T08:12:24;10.93;;;7.15;;
20629;SDS011;17386;43.846;25.950;2022-07-30T08:14:49;18.25;;;11.30;;
20629;SDS011;17386;43.846;25.950;2022-07-30T08:17:15;10.27;;;7.57;;
20629;SDS011;17386;43.846;25.950;2022-07-30T08:19:40;9.60;;;7.90;;
20629;SDS011;17386;43.846;25.950;2022-07-30T08:22:07;13.70;;;8.77;;
20629;SDS011;17386;43.846;25.950;2022-07-30T08:24:32;13.27;;;8.32;;
20629;SDS011;17386;43.846;25.950;2022-07-30T08:26:58;13.80;;;8.57;;
20629;SDS011;17386;43.846;25.950;2022-07-30T08:29:23;15.20;;;7.80;;
20629;SDS011;17386;43.846;25.950;2022-07-30T08:31:49;10.65;;;7.90;;
20629;SDS011;17386;43.846;25.950;2022-07-30T08:34:14;8.02;;;7.13;;
20629;SDS011;17386;43.846;25.950;2022-07-30T08:36:40;13.32;;;7.30;;
20629;SDS011;17386;43.846;25.950;2022-07-30T08:39:06;16.05;;;8.85;;
20629;SDS011;17386;43.846;25.950;2022-07-30T08:41:31;16.30;;;9.60;;
20629;SDS011;17386;43.846;25.950;2022-07-30T08:43:58;12.68;;;8.40;;
20629;SDS011;17386;43.846;25.950;2022-07-30T08:46:26;11.68;;;8.35;;
20629;SDS011;17386;43.846;25.950;2022-07-30T08:48:55;13.23;;;8.30;;
20629;SDS011;17386;43.846;25.950;2022-07-30T08:51:21;11.20;;;7.45;;
20629;SDS011;17386;43.846;25.950;2022-07-30T08:53:47;12.25;;;8.50;;
20629;SDS011;17386;43.846;25.950;2022-07-30T08:56:15;14.80;;;10.25;;
20629;SDS011;17386;43.846;25.950;2022-07-30T09:03:33;9.68;;;7.03;;
20629;SDS011;17386;43.846;25.950;2022-07-30T09:06:00;8.90;;;7.35;;
20629;SDS011;17386;43.846;25.950;2022-07-30T09:08:27;14.23;;;8.43;;
20629;SDS011;17386;43.846;25.950;2022-07-30T09:10:54;12.18;;;7.60;;
20629;SDS011;17386;43.846;25.950;2022-07-30T09:15:52;12.13;;;7.72;;
20629;SDS011;17386;43.846;25.950;2022-07-30T09:23:56;14.07;;;9.57;;
20629;SDS011;17386;43.846;25.950;2022-07-30T09:26:23;11.13;;;8.05;;
20629;SDS011;17386;43.846;25.950;2022-07-30T09:28:49;12.10;;;8.65;;
20629;SDS011;17386;43.846;25.950;2022-07-30T09:31:15;10.75;;;7.70;;
20629;SDS011;17386;43.846;25.950;2022-07-30T09:36:14;12.45;;;7.45;;
20629;SDS011;17386;43.846;25.950;2022-07-30T09:38:50;9.18;;;7.00;;
20629;SDS011;17386;43.846;25.950;2022-07-30T09:41:18;12.38;;;8.48;;
20629;SDS011;17386;43.846;25.950;2022-07-30T09:43:55;11.68;;;7.72;;
20629;SDS011;17386;43.846;25.950;2022-07-30T09:46:21;8.57;;;7.30;;
20629;SDS011;17386;43.846;25.950;2022-07-30T09:48:47;9.40;;;7.35;;
20629;SDS011;17386;43.846;25.950;2022-07-30T09:51:13;9.98;;;7.43;;
20629;SDS011;17386;43.846;25.950;2022-07-30T09:53:55;10.77;;;8.02;;
20629;SDS011;17386;43.846;25.950;2022-07-30T09:56:26;10.68;;;7.50;;
20629;SDS011;17386;43.846;25.950;2022-07-30T09:58:53;9.35;;;7.60;;
20629;SDS011;17386;43.846;25.950;2022-07-30T10:01:19;9.48;;;7.20;;
20629;SDS011;17386;43.846;25.950;2022-07-30T10:03:46;9.70;;;7.10;;
20629;SDS011;17386;43.846;25.950;2022-07-30T10:06:12;11.48;;;7.53;;
20629;SDS011;17386;43.846;25.950;2022-07-30T10:11:08;11.10;;;7.93;;
20629;SDS011;17386;43.846;25.950;2022-07-30T10:13:39;10.43;;;8.02;;
20629;SDS011;17386;43.846;25.950;2022-07-30T10:16:05;10.68;;;7.30;;
20629;SDS011;17386;43.846;25.950;2022-07-30T10:18:31;10.20;;;7.28;;
20629;SDS011;17386;43.846;25.950;2022-07-30T10:20:58;8.75;;;6.40;;
20629;SDS011;17386;43.846;25.950;2022-07-30T10:23:25;9.15;;;7.25;;
20629;SDS011;17386;43.846;25.950;2022-07-30T10:25:56;8.85;;;6.95;;
20629;SDS011;17386;43.846;25.950;2022-07-30T10:28:23;10.68;;;7.05;;
20629;SDS011;17386;43.846;25.950;2022-07-30T10:30:50;12.13;;;6.55;;
20629;SDS011;17386;43.846;25.950;2022-07-30T10:33:17;8.05;;;6.20;;
20629;SDS011;17386;43.846;25.950;2022-07-30T10:35:42;10.05;;;6.63;;
20629;SDS011;17386;43.846;25.950;2022-07-30T10:38:09;10.65;;;6.72;;
20629;SDS011;17386;43.846;25.950;2022-07-30T10:40:39;7.68;;;6.20;;
20629;SDS011;17386;43.846;25.950;2022-07-30T10:43:29;9.48;;;6.15;;
20629;SDS011;17386;43.846;25.950;2022-07-30T10:48:32;6.68;;;5.50;;
20629;SDS011;17386;43.846;25.950;2022-07-30T10:50:58;10.25;;;6.50;;
20629;SDS011;17386;43.846;25.950;2022-07-30T10:53:34;10.07;;;5.72;;
20629;SDS011;17386;43.846;25.950;2022-07-30T10:59:04;8.05;;;5.50;;
20629;SDS011;17386;43.846;25.950;2022-07-30T11:02:15;6.03;;;5.43;;
20629;SDS011;17386;43.846;25.950;2022-07-30T11:06:50;8.07;;;6.13;;
20629;SDS011;17386;43.846;25.950;2022-07-30T11:09:38;8.23;;;5.63;;
20629;SDS011;17386;43.846;25.950;2022-07-30T11:12:06;15.60;;;11.27;;
20629;SDS011;17386;43.846;25.950;2022-07-30T11:17:12;10.65;;;6.85;;
20629;SDS011;17386;43.846;25.950;2022-07-30T11:22:45;10.60;;;6.00;;
20629;SDS011;17386;43.846;25.950;2022-07-30T11:25:58;7.97;;;5.47;;
20629;SDS011;17386;43.846;25.950;2022-07-30T11:27:58;5.80;;;5.20;;
20629;SDS011;17386;43.846;25.950;2022-07-30T11:32:55;6.40;;;5.80;;
20629;SDS011;17386;43.846;25.950;2022-07-30T11:35:41;8.93;;;6.28;;
20629;SDS011;17386;43.846;25.950;2022-07-30T11:38:13;8.20;;;6.35;;
20629;SDS011;17386;43.846;25.950;2022-07-30T11:43:22;8.95;;;5.25;;
20629;SDS011;17386;43.846;25.950;2022-07-30T11:46:26;7.75;;;6.63;;
20629;SDS011;17386;43.846;25.950;2022-07-30T11:48:59;6.53;;;5.50;;
20629;SDS011;17386;43.846;25.950;2022-07-30T11:51:42;8.07;;;5.95;;
20629;SDS011;17386;43.846;25.950;2022-07-30T11:54:09;7.90;;;6.38;;
20629;SDS011;17386;43.846;25.950;2022-07-30T11:56:36;9.85;;;5.53;;
20629;SDS011;17386;43.846;25.950;2022-07-30T12:01:30;9.32;;;6.32;;
20629;SDS011;17386;43.846;25.950;2022-07-30T12:04:00;8.63;;;6.10;;
20629;SDS011;17386;43.846;25.950;2022-07-30T12:06:27;9.25;;;6.97;;
20629;SDS011;17386;43.846;25.950;2022-07-30T12:08:55;7.00;;;6.13;;
20629;SDS011;17386;43.846;25.950;2022-07-30T12:11:21;6.75;;;5.57;;
20629;SDS011;17386;43.846;25.950;2022-07-30T12:13:54;9.20;;;5.78;;
20629;SDS011;17386;43.846;25.950;2022-07-30T12:16:21;6.55;;;5.25;;
20629;SDS011;17386;43.846;25.950;2022-07-30T12:18:48;8.90;;;5.50;;
20629;SDS011;17386;43.846;25.950;2022-07-30T12:21:14;7.40;;;5.63;;
20629;SDS011;17386;43.846;25.950;2022-07-30T12:23:40;7.78;;;5.57;;
20629;SDS011;17386;43.846;25.950;2022-07-30T12:26:07;9.02;;;6.60;;
20629;SDS011;17386;43.846;25.950;2022-07-30T12:28:43;8.50;;;5.82;;
20629;SDS011;17386;43.846;25.950;2022-07-30T12:31:09;7.28;;;5.40;;
20629;SDS011;17386;43.846;25.950;2022-07-30T12:33:39;12.50;;;9.13;;
20629;SDS011;17386;43.846;25.950;2022-07-30T12:36:04;7.72;;;6.07;;
20629;SDS011;17386;43.846;25.950;2022-07-30T12:38:30;9.75;;;6.13;;
20629;SDS011;17386;43.846;25.950;2022-07-30T12:41:08;7.63;;;6.25;;
20629;SDS011;17386;43.846;25.950;2022-07-30T12:46:18;6.47;;;5.28;;
20629;SDS011;17386;43.846;25.950;2022-07-30T12:49:03;7.50;;;6.65;;
20629;SDS011;17386;43.846;25.950;2022-07-30T12:51:48;7.80;;;5.18;;
20629;SDS011;17386;43.846;25.950;2022-07-30T12:54:18;5.95;;;5.18;;
20629;SDS011;17386;43.846;25.950;2022-07-30T12:57:00;9.48;;;7.03;;
20629;SDS011;17386;43.846;25.950;2022-07-30T12:59:27;6.10;;;5.50;;
20629;SDS011;17386;43.846;25.950;2022-07-30T13:01:54;9.55;;;7.93;;
20629;SDS011;17386;43.846;25.950;2022-07-30T13:04:21;8.38;;;5.78;;
20629;SDS011;17386;43.846;25.950;2022-07-30T13:09:35;6.70;;;5.55;;
20629;SDS011;17386;43.846;25.950;2022-07-30T13:12:01;9.30;;;5.35;;
20629;SDS011;17386;43.846;25.950;2022-07-30T13:14:28;6.95;;;5.40;;
20629;SDS011;17386;43.846;25.950;2022-07-30T13:16:53;6.53;;;5.75;;
20629;SDS011;17386;43.846;25.950;2022-07-30T13:19:22;6.53;;;5.72;;
20629;SDS011;17386;43.846;25.950;2022-07-30T13:21:49;9.43;;;5.63;;
20629;SDS011;17386;43.846;25.950;2022-07-30T13:24:15;5.93;;;4.65;;
20629;SDS011;17386;43.846;25.950;2022-07-30T13:26:41;7.22;;;4.90;;
20629;SDS011;17386;43.846;25.950;2022-07-30T13:29:06;6.18;;;5.53;;
20629;SDS011;17386;43.846;25.950;2022-07-30T13:31:32;9.02;;;5.50;;
20629;SDS011;17386;43.846;25.950;2022-07-30T13:33:59;6.78;;;4.95;;
20629;SDS011;17386;43.846;25.950;2022-07-30T13:36:25;6.50;;;5.18;;
20629;SDS011;17386;43.846;25.950;2022-07-30T13:38:53;7.93;;;5.47;;
20629;SDS011;17386;43.846;25.950;2022-07-30T13:41:19;7.82;;;4.90;;
20629;SDS011;17386;43.846;25.950;2022-07-30T13:43:46;9.10;;;5.65;;
20629;SDS011;17386;43.846;25.950;2022-07-30T13:46:13;5.97;;;5.38;;
20629;SDS011;17386;43.846;25.950;2022-07-30T13:48:40;7.07;;;5.20;;
20629;SDS011;17386;43.846;25.950;2022-07-30T13:51:06;6.55;;;5.53;;
20629;SDS011;17386;43.846;25.950;2022-07-30T13:53:33;7.07;;;5.38;;
20629;SDS011;17386;43.846;25.950;2022-07-30T13:58:28;5.57;;;4.97;;
20629;SDS011;17386;43.846;25.950;2022-07-30T14:00:55;7.93;;;5.00;;
20629;SDS011;17386;43.846;25.950;2022-07-30T14:03:23;9.52;;;5.30;;
20629;SDS011;17386;43.846;25.950;2022-07-30T14:05:48;7.35;;;5.90;;
20629;SDS011;17386;43.846;25.950;2022-07-30T14:08:14;7.65;;;5.90;;
20629;SDS011;17386;43.846;25.950;2022-07-30T14:10:39;6.70;;;5.05;;
20629;SDS011;17386;43.846;25.950;2022-07-30T14:13:06;6.28;;;4.82;;
20629;SDS011;17386;43.846;25.950;2022-07-30T14:15:35;5.85;;;4.72;;
20629;SDS011;17386;43.846;25.950;2022-07-30T14:18:02;8.07;;;4.47;;
20629;SDS011;17386;43.846;25.950;2022-07-30T14:20:29;7.20;;;5.13;;
20629;SDS011;17386;43.846;25.950;2022-07-30T14:22:55;5.50;;;4.32;;
20629;SDS011;17386;43.846;25.950;2022-07-30T14:25:22;5.40;;;4.80;;
20629;SDS011;17386;43.846;25.950;2022-07-30T14:27:49;7.22;;;5.75;;
20629;SDS011;17386;43.846;25.950;2022-07-30T14:30:16;6.03;;;4.53;;
20629;SDS011;17386;43.846;25.950;2022-07-30T14:32:43;6.22;;;4.82;;
20629;SDS011;17386;43.846;25.950;2022-07-30T14:35:10;8.25;;;5.70;;
20629;SDS011;17386;43.846;25.950;2022-07-30T14:37:37;9.70;;;5.93;;
20629;SDS011;17386;43.846;25.950;2022-07-30T14:40:05;8.98;;;6.40;;
20629;SDS011;17386;43.846;25.950;2022-07-30T14:42:33;6.13;;;5.43;;
20629;SDS011;17386;43.846;25.950;2022-07-30T14:45:02;7.30;;;5.10;;
20629;SDS011;17386;43.846;25.950;2022-07-30T14:47:28;6.20;;;5.45;;
20629;SDS011;17386;43.846;25.950;2022-07-30T14:49:55;7.63;;;5.60;;
20629;SDS011;17386;43.846;25.950;2022-07-30T14:52:20;7.38;;;5.80;;
20629;SDS011;17386;43.846;25.950;2022-07-30T14:54:47;7.75;;;5.95;;
20629;SDS011;17386;43.846;25.950;2022-07-30T14:59:41;7.97;;;5.35;;
20629;SDS011;17386;43.846;25.950;2022-07-30T15:04:32;8.45;;;4.90;;
20629;SDS011;17386;43.846;25.950;2022-07-30T15:06:57;5.95;;;5.15;;
20629;SDS011;17386;43.846;25.950;2022-07-30T15:09:24;6.30;;;5.13;;
20629;SDS011;17386;43.846;25.950;2022-07-30T15:11:51;9.85;;;5.60;;
20629;SDS011;17386;43.846;25.950;2022-07-30T15:16:43;7.72;;;5.15;;
20629;SDS011;17386;43.846;25.950;2022-07-30T15:19:10;7.20;;;6.50;;
20629;SDS011;17386;43.846;25.950;2022-07-30T15:21:38;7.88;;;5.30;;
20629;SDS011;17386;43.846;25.950;2022-07-30T15:24:05;6.22;;;5.63;;
20629;SDS011;17386;43.846;25.950;2022-07-30T15:26:31;6.57;;;5.28;;
20629;SDS011;17386;43.846;25.950;2022-07-30T15:28:58;6.88;;;5.90;;
20629;SDS011;17386;43.846;25.950;2022-07-30T15:31:25;8.70;;;5.32;;
20629;SDS011;17386;43.846;25.950;2022-07-30T15:36:18;6.35;;;5.50;;
20629;SDS011;17386;43.846;25.950;2022-07-30T15:38:43;7.90;;;5.80;;
20629;SDS011;17386;43.846;25.950;2022-07-30T15:41:10;7.00;;;5.80;;
20629;SDS011;17386;43.846;25.950;2022-07-30T15:43:36;6.38;;;5.68;;
20629;SDS011;17386;43.846;25.950;2022-07-30T15:48:31;7.70;;;5.25;;
20629;SDS011;17386;43.846;25.950;2022-07-30T15:51:00;11.40;;;5.82;;
20629;SDS011;17386;43.846;25.950;2022-07-30T15:53:28;6.85;;;5.38;;
20629;SDS011;17386;43.846;25.950;2022-07-30T15:55:57;8.95;;;5.85;;
20629;SDS011;17386;43.846;25.950;2022-07-30T15:58:24;6.70;;;5.78;;
20629;SDS011;17386;43.846;25.950;2022-07-30T16:00:52;10.27;;;6.18;;
20629;SDS011;17386;43.846;25.950;2022-07-30T16:03:18;6.75;;;5.30;;
20629;SDS011;17386;43.846;25.950;2022-07-30T16:08:10;7.78;;;5.72;;
20629;SDS011;17386;43.846;25.950;2022-07-30T16:10:37;6.93;;;5.38;;
20629;SDS011;17386;43.846;25.950;2022-07-30T16:13:06;10.77;;;5.60;;
20629;SDS011;17386;43.846;25.950;2022-07-30T16:15:32;8.63;;;5.65;;
20629;SDS011;17386;43.846;25.950;2022-07-30T16:17:57;13.20;;;5.80;;
20629;SDS011;17386;43.846;25.950;2022-07-30T16:20:24;8.50;;;5.75;;